FKYS/NSI METAR and TAF weather

Enter ICAO airport designator
Station Type Date Time Source
FKYS METAR 2022/09/26 09:00 UTC NOAA

FKYS 260900Z 28003KT 240V330 9999 BKN011 23/22 Q1018 BECMG BKN016


Station Type Date Time Source
FKYS Decoded METAR 2022/09/26 09:00 UTC NOAA

Yaounde, Cameroon (FKYS) 03-50N 011-31E 760M
Sep 26, 2022 - 05:00 AM EDT / 2022.09.26 0900 UTC
Wind: from the W (280 degrees) at 3 MPH (3 KT) (direction variable):0
Visibility: greater than 7 mile(s):0
Sky conditions: mostly cloudy
Temperature: 73 F (23 C)
Dew Point: 71 F (22 C)
Relative Humidity: 94%
Pressure (altimeter): 30.06 in. Hg (1018 hPa)
ob: FKYS 260900Z 28003KT 240V330 9999 BKN011 23/22 Q1018 BECMG BKN016
cycle: 9

Station Type Date Time Source
FKYS TAF 2022/09/26 06:36 UTC NOAA

TAF TAF FKYS 260500Z 2606/2706 26005KT 8000 FEW003 BKN006 FEW016CB
BECMG 2607/2709 BKN016
TEMPO 2614/2622 TS BKN016 FEW020CB
TEMPO 2614/2620 3000 TSRA
BECMG 2619/2921 BKN006

Example: see airport list